createdAt,value
2022-12-26T00:02:01.150Z,41.80
2022-12-26T00:04:52.096Z,35.00
2022-12-26T00:07:19.908Z,40.40
2022-12-26T00:09:48.936Z,39.30
2022-12-26T00:12:17.884Z,36.80
2022-12-26T00:14:47.249Z,39.20
2022-12-26T00:17:16.239Z,40.00
2022-12-26T00:19:45.315Z,38.10
2022-12-26T00:22:15.951Z,37.90
2022-12-26T00:24:44.993Z,37.50
2022-12-26T00:27:14.288Z,36.40
2022-12-26T00:29:43.414Z,35.40
2022-12-26T00:32:12.345Z,37.20
2022-12-26T00:34:41.323Z,36.50
2022-12-26T00:37:10.364Z,34.90
2022-12-26T00:39:39.341Z,35.60
2022-12-26T00:42:08.444Z,33.60
2022-12-26T00:44:37.371Z,35.30
2022-12-26T00:47:06.587Z,34.00
2022-12-26T00:50:15.035Z,34.70
2022-12-26T00:52:24.819Z,32.70
2022-12-26T00:54:53.907Z,30.90
2022-12-26T00:57:22.865Z,32.30
2022-12-26T00:59:51.868Z,29.50
2022-12-26T01:02:39.525Z,31.90
2022-12-26T01:05:12.283Z,32.00
2022-12-26T01:08:22.542Z,30.70
2022-12-26T01:10:31.047Z,29.50
2022-12-26T01:13:00.668Z,30.20
2022-12-26T01:15:30.562Z,30.60
2022-12-26T01:18:00.543Z,32.00
2022-12-26T01:20:29.729Z,31.00
2022-12-26T01:22:58.785Z,29.80
2022-12-26T01:25:27.844Z,30.10
2022-12-26T01:27:56.881Z,30.00
2022-12-26T01:30:25.818Z,31.80
2022-12-26T01:32:54.824Z,31.40
2022-12-26T01:35:24.794Z,32.20
2022-12-26T01:37:53.893Z,29.00
2022-12-26T01:40:22.995Z,27.80
2022-12-26T01:42:52.051Z,26.60
2022-12-26T01:45:32.579Z,27.90
2022-12-26T01:48:26.103Z,26.20
2022-12-26T01:51:03.815Z,26.00
2022-12-26T01:53:41.508Z,24.60
2022-12-26T01:56:20.559Z,25.10
2022-12-26T01:59:06.420Z,23.20
2022-12-26T02:01:39.195Z,26.90
2022-12-26T02:04:34.389Z,24.60
2022-12-26T02:07:05.856Z,26.40
2022-12-26T02:09:36.263Z,25.90
2022-12-26T02:12:37.113Z,27.30
2022-12-26T02:15:15.656Z,28.50
2022-12-26T02:17:45.191Z,29.20
2022-12-26T02:20:41.098Z,25.00
2022-12-26T02:24:00.680Z,25.40
2022-12-26T02:27:02.926Z,24.50
2022-12-26T02:29:50.289Z,22.90
2022-12-26T02:32:26.903Z,21.90
2022-12-26T02:35:37.108Z,23.20
2022-12-26T02:38:15.245Z,20.80
2022-12-26T02:41:14.627Z,22.00
2022-12-26T02:44:55.423Z,21.20
2022-12-26T02:47:55.110Z,19.60
2022-12-26T02:51:07.285Z,20.00
2022-12-26T02:54:26.527Z,19.30
2022-12-26T02:57:27.474Z,19.10
2022-12-26T03:00:32.119Z,19.50
2022-12-26T03:03:44.143Z,17.20
2022-12-26T03:06:40.956Z,18.40
2022-12-26T03:09:35.346Z,18.80
2022-12-26T03:12:49.559Z,17.00
2022-12-26T03:15:22.472Z,17.20
2022-12-26T03:17:58.921Z,16.50
2022-12-26T03:20:35.997Z,17.50
2022-12-26T03:23:11.313Z,17.00
2022-12-26T03:26:23.142Z,16.60
2022-12-26T03:28:52.434Z,15.40
2022-12-26T03:31:21.438Z,14.40
2022-12-26T03:34:08.833Z,16.30
2022-12-26T03:36:51.835Z,16.50
2022-12-26T03:40:08.154Z,15.50
2022-12-26T03:43:08.778Z,15.20
2022-12-26T03:46:42.108Z,16.20
2022-12-26T03:49:47.512Z,15.60
2022-12-26T03:52:42.974Z,16.50
2022-12-26T03:55:42.814Z,16.20
2022-12-26T03:59:15.259Z,17.30
2022-12-26T04:02:05.605Z,16.50
2022-12-26T04:04:58.589Z,15.90
2022-12-26T04:08:02.140Z,16.70
2022-12-26T04:11:03.675Z,15.60
2022-12-26T04:14:07.161Z,15.90
2022-12-26T04:17:04.093Z,16.00
2022-12-26T04:19:54.806Z,15.70
2022-12-26T04:23:11.599Z,15.50
2022-12-26T04:26:24.283Z,15.90
2022-12-26T04:32:23.660Z,15.70
2022-12-26T04:35:22.726Z,16.50
2022-12-26T04:38:14.058Z,15.50
2022-12-26T04:41:08.433Z,17.00
2022-12-26T04:43:57.479Z,17.30
2022-12-26T04:46:27.688Z,16.30
2022-12-26T04:49:16.785Z,16.20
2022-12-26T04:51:45.793Z,16.60
2022-12-26T04:54:14.910Z,16.70
2022-12-26T04:56:43.920Z,15.20
2022-12-26T04:59:16.100Z,14.70
2022-12-26T05:02:04.054Z,16.30
2022-12-26T05:04:51.782Z,15.60
2022-12-26T05:07:44.203Z,15.00
2022-12-26T05:12:51.722Z,16.50
2022-12-26T05:15:21.461Z,16.10
2022-12-26T05:18:09.499Z,20.40
2022-12-26T05:20:46.339Z,22.90
2022-12-26T05:23:46.194Z,15.50
2022-12-26T05:26:41.777Z,15.70
2022-12-26T05:29:10.895Z,17.10
2022-12-26T05:31:40.133Z,19.10
2022-12-26T05:34:14.078Z,17.60
2022-12-26T05:36:53.509Z,17.10
2022-12-26T05:39:23.427Z,16.50
2022-12-26T05:41:53.390Z,15.40
2022-12-26T05:44:22.318Z,14.70
2022-12-26T05:46:51.386Z,13.00
2022-12-26T05:49:20.475Z,18.20
2022-12-26T05:51:50.795Z,12.80
2022-12-26T05:54:19.802Z,12.90
2022-12-26T05:56:49.811Z,17.90
2022-12-26T05:59:18.981Z,17.20
2022-12-26T06:01:48.058Z,16.70
2022-12-26T06:04:17.235Z,17.50
2022-12-26T06:06:46.200Z,17.40
2022-12-26T06:09:15.292Z,20.90
2022-12-26T06:11:48.822Z,18.60
2022-12-26T06:14:18.264Z,21.30
2022-12-26T06:16:47.299Z,18.60
2022-12-26T06:19:16.522Z,18.70
2022-12-26T06:21:45.496Z,17.90
2022-12-26T06:24:14.524Z,17.50
2022-12-26T06:26:43.492Z,13.30
2022-12-26T06:29:12.528Z,14.50
2022-12-26T06:31:41.574Z,14.30
2022-12-26T06:34:11.011Z,12.00
2022-12-26T06:36:40.279Z,13.50
2022-12-26T06:39:09.250Z,12.20
2022-12-26T06:41:38.352Z,12.40
2022-12-26T06:44:10.508Z,13.60
2022-12-26T06:46:42.391Z,12.40
2022-12-26T06:49:13.911Z,12.80
2022-12-26T06:51:45.224Z,11.80
2022-12-26T06:54:14.235Z,12.00
2022-12-26T06:56:43.290Z,12.10
2022-12-26T06:59:12.662Z,12.10
2022-12-26T07:01:41.855Z,12.00
2022-12-26T07:04:12.991Z,12.80
2022-12-26T07:06:42.216Z,12.20
2022-12-26T07:09:16.970Z,13.30
2022-12-26T07:11:50.179Z,12.20
2022-12-26T07:14:22.092Z,12.70
2022-12-26T07:19:20.472Z,12.30
2022-12-26T07:21:49.775Z,13.70
2022-12-26T07:24:22.415Z,12.50
2022-12-26T07:26:51.764Z,14.60
2022-12-26T07:29:22.108Z,13.30
2022-12-26T07:31:51.258Z,12.60
2022-12-26T07:34:20.348Z,16.10
2022-12-26T07:36:55.238Z,14.10
2022-12-26T07:39:24.990Z,13.10
2022-12-26T07:41:59.780Z,13.50
2022-12-26T07:44:32.232Z,13.10
2022-12-26T07:47:01.792Z,13.50
2022-12-26T07:49:30.888Z,13.40
2022-12-26T07:52:00.205Z,14.00
2022-12-26T07:54:30.195Z,16.30
2022-12-26T07:57:21.934Z,19.30
2022-12-26T07:59:51.992Z,16.10
2022-12-26T08:02:24.772Z,18.10
2022-12-26T08:04:54.050Z,19.30
2022-12-26T08:07:23.473Z,17.90
2022-12-26T08:09:52.497Z,16.00
2022-12-26T08:12:24.775Z,14.90
2022-12-26T08:14:53.808Z,15.90
2022-12-26T08:17:22.833Z,15.20
2022-12-26T08:19:51.924Z,15.80
2022-12-26T08:22:20.980Z,16.00
2022-12-26T08:24:50.076Z,20.10
2022-12-26T08:27:19.350Z,14.40
2022-12-26T08:29:49.149Z,14.40
2022-12-26T08:32:18.209Z,14.50
2022-12-26T08:34:47.375Z,15.30
2022-12-26T08:37:16.474Z,17.80
2022-12-26T08:39:45.501Z,16.80
2022-12-26T08:42:14.600Z,15.70
2022-12-26T08:44:43.601Z,16.70
2022-12-26T08:47:13.308Z,20.30
2022-12-26T08:49:42.337Z,23.90
2022-12-26T08:52:11.365Z,17.30
2022-12-26T08:54:40.288Z,14.90
2022-12-26T08:57:10.205Z,13.60
2022-12-26T08:59:39.248Z,13.60
2022-12-26T09:02:11.912Z,14.20
2022-12-26T09:04:41.066Z,13.70
2022-12-26T09:07:10.326Z,14.10
2022-12-26T09:09:40.010Z,14.80
2022-12-26T09:12:09.074Z,21.10
2022-12-26T09:14:38.034Z,18.60
2022-12-26T09:17:07.117Z,16.20
2022-12-26T09:19:36.879Z,14.60
2022-12-26T09:22:24.847Z,14.50
2022-12-26T09:24:53.827Z,16.30
2022-12-26T09:27:23.881Z,15.20
2022-12-26T09:29:52.833Z,14.80
2022-12-26T09:32:21.794Z,13.10
2022-12-26T09:34:50.782Z,13.90
2022-12-26T09:37:19.881Z,18.90
2022-12-26T09:39:48.868Z,19.20
2022-12-26T09:42:27.693Z,15.20
2022-12-26T09:45:16.798Z,13.00
2022-12-26T09:48:00.805Z,12.90
2022-12-26T09:50:42.907Z,12.50
2022-12-26T09:53:37.226Z,14.60
2022-12-26T09:56:23.637Z,12.80
2022-12-26T09:59:46.349Z,13.80
2022-12-26T10:02:22.598Z,12.70
2022-12-26T10:04:53.944Z,13.80
2022-12-26T10:07:38.265Z,12.30
2022-12-26T10:10:14.513Z,15.60
2022-12-26T10:13:39.536Z,14.40
2022-12-26T10:17:04.126Z,18.50
2022-12-26T10:20:07.566Z,12.00
2022-12-26T10:23:19.395Z,13.60
2022-12-26T10:26:20.307Z,14.80
2022-12-26T10:29:32.098Z,23.30
2022-12-26T10:32:11.103Z,15.10
2022-12-26T10:34:50.557Z,14.30
2022-12-26T10:37:47.671Z,14.10
2022-12-26T10:40:52.083Z,16.00
2022-12-26T10:43:21.103Z,17.30
2022-12-26T10:46:36.823Z,20.10
2022-12-26T10:49:12.307Z,15.70
2022-12-26T10:51:41.392Z,11.30
2022-12-26T10:54:20.346Z,12.10
2022-12-26T10:56:52.302Z,13.10
2022-12-26T11:07:19.559Z,13.30
2022-12-26T11:09:56.020Z,15.00
2022-12-26T11:12:50.563Z,11.70
2022-12-26T11:15:50.025Z,11.90
2022-12-26T11:18:54.859Z,12.70
2022-12-26T11:21:30.455Z,12.60
2022-12-26T11:24:08.548Z,10.00
2022-12-26T11:26:38.927Z,12.80
2022-12-26T11:29:24.547Z,11.10
2022-12-26T11:32:03.136Z,8.80
2022-12-26T11:34:46.357Z,7.90
2022-12-26T11:37:40.988Z,8.30
2022-12-26T11:40:28.208Z,21.00
2022-12-26T11:43:00.685Z,9.20
2022-12-26T11:45:38.553Z,9.90
2022-12-26T11:48:23.287Z,83.50
2022-12-26T11:50:54.212Z,18.50
2022-12-26T11:53:23.542Z,22.90
2022-12-26T11:56:05.508Z,27.70
2022-12-26T12:01:12.134Z,15.70
2022-12-26T12:03:49.584Z,11.30
2022-12-26T12:07:08.361Z,12.60
2022-12-26T12:09:59.605Z,12.40
2022-12-26T12:12:56.358Z,11.80
2022-12-26T12:15:42.021Z,17.70
2022-12-26T12:18:52.887Z,15.20
2022-12-26T12:21:44.083Z,16.60
2022-12-26T12:24:57.047Z,14.40
2022-12-26T12:27:56.215Z,13.70
2022-12-26T12:31:11.121Z,12.50
2022-12-26T12:33:56.645Z,12.30
2022-12-26T12:36:52.626Z,12.50
2022-12-26T12:39:46.296Z,13.10
2022-12-26T12:42:39.741Z,19.30
2022-12-26T12:45:28.985Z,33.40
2022-12-26T12:48:22.372Z,43.70
2022-12-26T12:51:03.715Z,17.00
2022-12-26T12:54:00.396Z,29.00
2022-12-26T12:56:48.094Z,28.00
2022-12-26T12:59:39.124Z,15.80
2022-12-26T13:02:28.309Z,18.70
2022-12-26T13:05:11.831Z,13.60
2022-12-26T13:07:47.634Z,13.10
2022-12-26T13:10:27.936Z,14.90
2022-12-26T13:12:59.199Z,16.10
2022-12-26T13:15:44.567Z,18.70
2022-12-26T13:18:23.889Z,20.90
2022-12-26T13:21:05.399Z,20.30
2022-12-26T13:24:09.370Z,19.10
2022-12-26T13:26:53.909Z,20.00
2022-12-26T13:29:48.309Z,21.70
2022-12-26T13:32:32.159Z,18.40
2022-12-26T13:35:04.464Z,16.90
2022-12-26T13:37:39.486Z,19.30
2022-12-26T13:40:11.583Z,17.60
2022-12-26T13:43:07.960Z,16.40
2022-12-26T13:45:43.026Z,14.90
2022-12-26T13:48:18.414Z,17.10
2022-12-26T13:50:56.065Z,17.20
2022-12-26T13:53:25.717Z,17.10
2022-12-26T13:56:27.819Z,20.60
2022-12-26T13:59:17.876Z,18.20
2022-12-26T14:02:19.402Z,20.10
2022-12-26T14:05:51.169Z,20.60
2022-12-26T14:08:51.330Z,20.90
2022-12-26T14:11:46.707Z,22.10
2022-12-26T14:14:54.362Z,23.10
2022-12-26T14:18:17.944Z,18.60
2022-12-26T14:21:58.737Z,13.00
2022-12-26T14:25:02.057Z,12.30
2022-12-26T14:28:04.324Z,12.70
2022-12-26T14:30:37.033Z,11.60
2022-12-26T14:33:38.968Z,10.60
2022-12-26T14:36:26.388Z,10.20
2022-12-26T14:39:17.561Z,10.70
2022-12-26T14:42:35.744Z,13.80
2022-12-26T14:45:33.185Z,13.50
2022-12-26T14:48:15.322Z,10.30
2022-12-26T14:50:52.210Z,9.80
2022-12-26T14:53:27.475Z,11.00
2022-12-26T14:56:10.445Z,12.60
2022-12-26T14:58:46.614Z,22.30
2022-12-26T15:01:17.195Z,17.00
2022-12-26T15:04:15.585Z,15.00
2022-12-26T15:07:32.305Z,16.10
2022-12-26T15:10:53.791Z,13.70
2022-12-26T15:14:16.708Z,24.70
2022-12-26T15:17:30.728Z,28.90
2022-12-26T15:20:38.607Z,10.70
2022-12-26T15:24:00.848Z,12.90
2022-12-26T15:26:46.477Z,11.40
2022-12-26T15:29:52.440Z,12.30
2022-12-26T15:32:51.939Z,11.50
2022-12-26T15:35:34.008Z,9.80
2022-12-26T15:38:24.637Z,11.90
2022-12-26T15:41:13.453Z,13.50
2022-12-26T15:44:26.473Z,14.10
2022-12-26T15:47:34.035Z,13.60
2022-12-26T15:50:31.057Z,11.20
2022-12-26T15:53:47.412Z,14.30
2022-12-26T15:56:58.745Z,10.70
2022-12-26T15:59:39.873Z,8.50
2022-12-26T16:02:28.087Z,11.20
2022-12-26T16:05:43.434Z,16.30
2022-12-26T16:08:46.589Z,15.80
2022-12-26T16:11:19.250Z,16.00
2022-12-26T16:13:55.903Z,15.30
2022-12-26T16:16:28.232Z,15.90
2022-12-26T16:18:59.945Z,12.30
2022-12-26T16:24:19.865Z,14.30
2022-12-26T16:26:49.041Z,14.60
2022-12-26T16:29:21.455Z,25.90
2022-12-26T16:31:50.634Z,38.90
2022-12-26T16:34:21.076Z,46.00
2022-12-26T16:36:51.370Z,32.50
2022-12-26T16:39:24.200Z,22.50
2022-12-26T16:42:07.069Z,16.20
2022-12-26T16:44:40.077Z,15.00
2022-12-26T16:47:13.407Z,13.10
2022-12-26T16:49:45.224Z,12.60
2022-12-26T16:52:45.816Z,12.00
2022-12-26T16:55:36.959Z,8.60
2022-12-26T16:58:31.265Z,10.60
2022-12-26T17:01:10.903Z,11.80
2022-12-26T17:03:52.295Z,12.40
2022-12-26T17:06:36.128Z,14.70
2022-12-26T17:09:17.064Z,13.20
2022-12-26T17:11:56.706Z,13.80
2022-12-26T17:14:32.252Z,15.30
2022-12-26T17:17:25.930Z,14.80
2022-12-26T17:19:59.066Z,17.00
2022-12-26T17:22:37.078Z,19.60
2022-12-26T17:25:21.502Z,16.60
2022-12-26T17:28:09.200Z,12.40
2022-12-26T17:30:43.721Z,10.70
2022-12-26T17:33:27.272Z,11.40
2022-12-26T17:38:53.607Z,13.60
2022-12-26T17:41:22.929Z,19.30
2022-12-26T17:43:52.975Z,21.20
2022-12-26T17:46:22.188Z,24.20
2022-12-26T17:48:51.500Z,25.80
2022-12-26T17:51:20.676Z,21.70
2022-12-26T17:53:51.912Z,39.00
2022-12-26T17:56:27.241Z,28.50
2022-12-26T17:58:56.417Z,20.90
2022-12-26T18:01:25.520Z,15.70
2022-12-26T18:03:54.896Z,12.60
2022-12-26T18:06:24.591Z,11.00
2022-12-26T18:08:53.768Z,10.90
2022-12-26T18:11:22.902Z,11.60
2022-12-26T18:13:51.926Z,13.10
2022-12-26T18:16:25.449Z,12.20
2022-12-26T18:18:54.616Z,12.30
2022-12-26T18:21:23.987Z,11.10
2022-12-26T18:23:53.620Z,12.00
2022-12-26T18:26:28.945Z,12.40
2022-12-26T18:28:59.199Z,14.50
2022-12-26T18:31:28.935Z,21.20
2022-12-26T18:33:58.661Z,18.90
2022-12-26T18:36:34.225Z,20.50
2022-12-26T18:39:04.742Z,25.90
2022-12-26T18:41:33.931Z,30.50
2022-12-26T18:44:03.633Z,12.10
2022-12-26T18:46:32.841Z,12.00
2022-12-26T18:49:01.889Z,12.10
2022-12-26T18:51:31.615Z,11.40
2022-12-26T18:54:00.587Z,12.60
2022-12-26T18:56:30.620Z,12.60
2022-12-26T18:58:59.896Z,13.00
2022-12-26T19:01:29.000Z,13.20
2022-12-26T19:03:58.524Z,13.20
2022-12-26T19:06:30.455Z,14.70
2022-12-26T19:08:59.412Z,13.20
2022-12-26T19:11:28.592Z,13.50
2022-12-26T19:14:00.814Z,12.50
2022-12-26T19:16:29.903Z,11.40
2022-12-26T19:18:58.884Z,11.40
2022-12-26T19:21:28.028Z,10.70
2022-12-26T19:23:58.694Z,11.90
2022-12-26T19:26:27.715Z,14.90
2022-12-26T19:29:00.242Z,12.50
2022-12-26T19:31:29.436Z,15.70
2022-12-26T19:33:59.013Z,13.60
2022-12-26T19:36:28.211Z,15.00
2022-12-26T19:38:57.617Z,14.50
2022-12-26T19:41:26.765Z,17.40
2022-12-26T19:43:58.757Z,14.70
2022-12-26T19:48:57.501Z,16.10
2022-12-26T19:51:26.556Z,12.60
2022-12-26T19:53:55.620Z,11.20
2022-12-26T19:56:28.562Z,10.70
2022-12-26T19:58:58.984Z,9.50
2022-12-26T20:01:32.228Z,9.30
2022-12-26T20:04:05.855Z,8.20
2022-12-26T20:06:37.500Z,11.40
2022-12-26T20:09:13.432Z,10.10
2022-12-26T20:11:49.420Z,12.40
2022-12-26T20:14:21.294Z,13.80
2022-12-26T20:17:09.683Z,12.00
2022-12-26T20:19:39.612Z,12.60
2022-12-26T20:22:08.963Z,11.90
2022-12-26T20:24:38.010Z,13.70
2022-12-26T20:27:07.142Z,13.00
2022-12-26T20:29:36.974Z,12.30
2022-12-26T20:32:06.113Z,11.90
2022-12-26T20:34:35.259Z,12.30
2022-12-26T20:37:04.589Z,10.70
2022-12-26T20:39:33.761Z,10.80
2022-12-26T20:42:02.836Z,10.90
2022-12-26T20:44:31.889Z,12.50
2022-12-26T20:47:01.078Z,12.50
2022-12-26T20:49:30.278Z,11.30
2022-12-26T20:52:00.068Z,11.30
2022-12-26T20:54:29.118Z,11.70
2022-12-26T20:56:58.166Z,13.00
2022-12-26T20:59:27.173Z,14.20
2022-12-26T21:01:56.463Z,13.00
2022-12-26T21:04:26.028Z,18.50
2022-12-26T21:06:57.645Z,27.30
2022-12-26T21:09:26.681Z,35.30
2022-12-26T21:11:56.042Z,35.80
2022-12-26T21:14:25.070Z,31.50
2022-12-26T21:16:59.230Z,24.10
2022-12-26T21:19:30.540Z,20.80
2022-12-26T21:22:00.092Z,22.30
2022-12-26T21:24:31.900Z,19.70
2022-12-26T21:27:01.198Z,20.00
2022-12-26T21:29:33.829Z,18.90
2022-12-26T21:32:03.858Z,18.60
2022-12-26T21:34:34.361Z,18.10
2022-12-26T21:37:21.746Z,18.30
2022-12-26T21:39:51.421Z,22.70
2022-12-26T21:42:20.452Z,17.80
2022-12-26T21:44:49.642Z,16.10
2022-12-26T21:47:19.054Z,16.30
2022-12-26T21:49:48.238Z,13.60
2022-12-26T21:52:17.439Z,12.20
2022-12-26T21:55:05.122Z,12.50
2022-12-26T21:57:35.254Z,12.50
2022-12-26T22:00:05.317Z,11.20
2022-12-26T22:02:56.260Z,11.20
2022-12-26T22:05:28.972Z,12.20
2022-12-26T22:08:01.281Z,11.10
2022-12-26T22:13:21.785Z,13.50
2022-12-26T22:16:03.320Z,12.10
2022-12-26T22:18:47.447Z,11.90
2022-12-26T22:21:22.329Z,12.40
2022-12-26T22:23:53.452Z,11.40
2022-12-26T22:26:24.832Z,12.30
2022-12-26T22:28:55.541Z,11.30
2022-12-26T22:31:32.425Z,10.20
2022-12-26T22:34:04.203Z,8.90
2022-12-26T22:36:34.539Z,9.50
2022-12-26T22:39:04.167Z,9.40
2022-12-26T22:41:34.573Z,10.60
2022-12-26T22:44:03.835Z,11.10
2022-12-26T22:46:32.992Z,12.40
2022-12-26T22:49:02.273Z,11.50
2022-12-26T22:51:31.371Z,14.40
2022-12-26T22:54:01.924Z,12.90
2022-12-26T22:56:32.898Z,9.70
2022-12-26T22:59:03.206Z,11.40
2022-12-26T23:01:32.413Z,10.80
2022-12-26T23:04:02.054Z,9.80
2022-12-26T23:06:35.723Z,11.70
2022-12-26T23:09:12.323Z,11.10
2022-12-26T23:11:42.071Z,13.60
2022-12-26T23:14:13.127Z,15.10
2022-12-26T23:16:52.719Z,14.20
2022-12-26T23:19:57.851Z,10.90
2022-12-26T23:22:27.711Z,12.70
2022-12-26T23:24:56.742Z,12.80
2022-12-26T23:27:44.643Z,14.10
2022-12-26T23:30:20.228Z,13.40
2022-12-26T23:32:52.564Z,11.20
2022-12-26T23:35:23.675Z,12.30
2022-12-26T23:37:53.267Z,10.40
2022-12-26T23:40:23.030Z,11.20
2022-12-26T23:42:52.055Z,9.90
2022-12-26T23:45:21.060Z,10.50
2022-12-26T23:47:50.060Z,8.50
2022-12-26T23:50:19.259Z,6.50
2022-12-26T23:52:48.228Z,6.90
2022-12-26T23:55:17.389Z,5.90
2022-12-26T23:57:46.427Z,4.20
